PWSweather.com
Personal Weather Stations
Station Observations
KMICHEBO10
Cordwood Point, Lake Huron, Cheboygan, MI 49721

Cordwood Point, Lake HuronCheboygan, MI 49721

Lat: 45.663372, Lon: -84.3327789

Elevation: 584

Station Type: Davis Vantage Pro2 Wireless

http://www.lakehuronweather.org

High Low Average
Temperature 30.9°F-0.6°C 19.2°F-7.1°C 25.4°F-3.7°C
Dew Point 26.5°F-3.1°C 15.4°F-9.2°C 20.2°F-6.6°C
Winds 5.8 mph 9.3 kmh Calm Calm 2.0 mph W3.2 kmh W
Wind Gusts 9.2 mph14.8 kmh 1.2 mph1.9 kmh 4.0 mph6.4 kmh
Humidity 87% 72% 81%
Pressure 30.47 in1031.8 mb 30.09 in1019.0 mb -
Precipitation 0.00 in0.0 mm - -
Hour Temp Dew Point Humidity Winds Wind Gusts Pressure Precip Precip Rate Daily Precip Total
12:00 AM 30.7°F-0.7°C 27.0°F-2.8°C 86% Calm Calm 1.2 mph1.9 kmh 30.06 in1017.9 mb - 0.00 in0.0 mm 0.26 in6.6 mm
12:10 AM 30.6°F-0.8°C 27.2°F-2.7°C 87% 1.2 mph WNW1.9 kmh WNW 1.2 mph1.9 kmh 30.06 in1017.9 mb - 0.00 in0.0 mm 0.26 in6.6 mm
12:20 AM 30.8°F-0.7°C 27.1°F-2.7°C 86% Calm Calm 1.2 mph1.9 kmh 30.07 in1018.3 mb - 0.00 in0.0 mm 0.26 in6.6 mm
12:30 AM 31.0°F-0.6°C 27.3°F-2.6°C 86% 1.2 mph W1.9 kmh W 2.3 mph3.7 kmh 30.08 in1018.6 mb - 0.00 in0.0 mm 0.26 in6.6 mm
12:40 AM 31.0°F-0.6°C 27.0°F-2.8°C 85% Calm Calm 3.5 mph5.6 kmh 30.08 in1018.6 mb - 0.00 in0.0 mm 0.26 in6.6 mm
12:50 AM 31.0°F-0.6°C 26.7°F-2.9°C 84% 3.5 mph NW5.6 kmh NW 5.8 mph9.3 kmh 30.08 in1018.6 mb - 0.00 in0.0 mm 0.26 in6.6 mm
01:00 AM 30.9°F-0.6°C 26.1°F-3.3°C 82% 1.2 mph NW1.9 kmh NW 2.3 mph3.7 kmh 30.09 in1019.0 mb - 0.00 in0.0 mm 0.00 in0.0 mm
01:10 AM 30.9°F-0.6°C 25.8°F-3.4°C 81% 1.2 mph NW1.9 kmh NW 2.3 mph3.7 kmh 30.10 in1019.3 mb - 0.00 in0.0 mm 0.00 in0.0 mm
01:20 AM 30.8°F-0.7°C 26.5°F-3.1°C 84% 1.2 mph W1.9 kmh W 5.8 mph9.3 kmh 30.10 in1019.3 mb - 0.00 in0.0 mm 0.00 in0.0 mm
01:30 AM 30.7°F-0.7°C 25.9°F-3.4°C 82% 1.2 mph N1.9 kmh N 2.3 mph3.7 kmh 30.10 in1019.3 mb - 0.00 in0.0 mm 0.00 in0.0 mm
01:40 AM 30.6°F-0.8°C 26.1°F-3.3°C 83% Calm Calm 1.2 mph1.9 kmh 30.10 in1019.3 mb - 0.00 in0.0 mm 0.00 in0.0 mm
01:50 AM 30.5°F-0.8°C 26.0°F-3.3°C 83% Calm Calm 2.3 mph3.7 kmh 30.10 in1019.3 mb - 0.00 in0.0 mm 0.00 in0.0 mm
02:00 AM 30.4°F-0.9°C 26.1°F-3.3°C 84% 1.2 mph NW1.9 kmh NW 1.2 mph1.9 kmh 30.11 in1019.6 mb - 0.00 in0.0 mm 0.00 in0.0 mm
02:10 AM 30.3°F-0.9°C 26.0°F-3.3°C 84% Calm Calm 1.2 mph1.9 kmh 30.11 in1019.6 mb - 0.00 in0.0 mm 0.00 in0.0 mm
02:20 AM 30.2°F-1.0°C 25.7°F-3.5°C 83% Calm Calm 2.3 mph3.7 kmh 30.11 in1019.6 mb - 0.00 in0.0 mm 0.00 in0.0 mm
02:30 AM 30.0°F-1.1°C 25.2°F-3.8°C 82% 1.2 mph W1.9 kmh W 2.3 mph3.7 kmh 30.12 in1020.0 mb - 0.00 in0.0 mm 0.00 in0.0 mm
02:40 AM 29.8°F-1.2°C 25.0°F-3.9°C 82% 1.2 mph WSW1.9 kmh WSW 3.5 mph5.6 kmh 30.12 in1020.0 mb - 0.00 in0.0 mm 0.00 in0.0 mm
02:50 AM 29.7°F-1.3°C 25.2°F-3.8°C 83% 1.2 mph WNW1.9 kmh WNW 2.3 mph3.7 kmh 30.13 in1020.3 mb - 0.00 in0.0 mm 0.00 in0.0 mm
03:00 AM 29.6°F-1.3°C 24.8°F-4.0°C 82% 1.2 mph WNW1.9 kmh WNW 3.5 mph5.6 kmh 30.13 in1020.3 mb - 0.00 in0.0 mm 0.00 in0.0 mm
03:10 AM 29.5°F-1.4°C 24.7°F-4.1°C 82% 1.2 mph W1.9 kmh W 1.2 mph1.9 kmh 30.14 in1020.7 mb - 0.00 in0.0 mm 0.00 in0.0 mm
03:20 AM 29.4°F-1.4°C 24.6°F-4.1°C 82% 1.2 mph NE1.9 kmh NE 3.5 mph5.6 kmh 30.14 in1020.7 mb - 0.00 in0.0 mm 0.00 in0.0 mm
03:30 AM 29.4°F-1.4°C 24.9°F-3.9°C 83% 1.2 mph NW1.9 kmh NW 6.9 mph11.1 kmh 30.14 in1020.7 mb - 0.00 in0.0 mm 0.00 in0.0 mm
03:40 AM 29.3°F-1.5°C 24.8°F-4.0°C 83% 1.2 mph NW1.9 kmh NW 2.3 mph3.7 kmh 30.15 in1021.0 mb - 0.00 in0.0 mm 0.00 in0.0 mm
03:50 AM 29.3°F-1.5°C 24.8°F-4.0°C 83% 1.2 mph N1.9 kmh N 4.6 mph7.4 kmh 30.15 in1021.0 mb - 0.00 in0.0 mm 0.00 in0.0 mm
04:00 AM 29.2°F-1.6°C 24.4°F-4.2°C 82% 1.2 mph NNE1.9 kmh NNE 3.5 mph5.6 kmh 30.15 in1021.0 mb - 0.00 in0.0 mm 0.00 in0.0 mm
04:10 AM 29.2°F-1.6°C 24.7°F-4.1°C 83% 1.2 mph WNW1.9 kmh WNW 2.3 mph3.7 kmh 30.16 in1021.3 mb - 0.00 in0.0 mm 0.00 in0.0 mm
04:20 AM 29.0°F-1.7°C 24.2°F-4.3°C 82% 1.2 mph SSW1.9 kmh SSW 1.2 mph1.9 kmh 30.16 in1021.3 mb - 0.00 in0.0 mm 0.00 in0.0 mm
04:30 AM 28.9°F-1.7°C 24.1°F-4.4°C 82% 1.2 mph NW1.9 kmh NW 3.5 mph5.6 kmh 30.16 in1021.3 mb - 0.00 in0.0 mm 0.00 in0.0 mm
04:40 AM 28.8°F-1.8°C 24.6°F-4.1°C 84% 1.2 mph WNW1.9 kmh WNW 3.5 mph5.6 kmh 30.17 in1021.7 mb - 0.00 in0.0 mm 0.00 in0.0 mm
04:50 AM 28.7°F-1.8°C 24.5°F-4.2°C 84% 1.2 mph NNE1.9 kmh NNE 2.3 mph3.7 kmh 30.17 in1021.7 mb - 0.00 in0.0 mm 0.00 in0.0 mm
05:00 AM 28.5°F-1.9°C 24.3°F-4.3°C 84% 1.2 mph NE1.9 kmh NE 1.2 mph1.9 kmh 30.17 in1021.7 mb - 0.00 in0.0 mm 0.00 in0.0 mm
05:10 AM 28.4°F-2.0°C 23.9°F-4.5°C 83% 1.2 mph N1.9 kmh N 3.5 mph5.6 kmh 30.18 in1022.0 mb - 0.00 in0.0 mm 0.00 in0.0 mm
05:20 AM 28.2°F-2.1°C 24.0°F-4.4°C 84% 1.2 mph ENE1.9 kmh ENE 2.3 mph3.7 kmh 30.18 in1022.0 mb - 0.00 in0.0 mm 0.00 in0.0 mm
05:30 AM 28.0°F-2.2°C 24.1°F-4.4°C 85% 1.2 mph SW1.9 kmh SW 1.2 mph1.9 kmh 30.19 in1022.4 mb - 0.00 in0.0 mm 0.00 in0.0 mm
05:40 AM 27.9°F-2.3°C 24.3°F-4.3°C 86% Calm Calm 1.2 mph1.9 kmh 30.19 in1022.4 mb - 0.00 in0.0 mm 0.00 in0.0 mm
05:50 AM 27.9°F-2.3°C 24.3°F-4.3°C 86% Calm Calm 2.3 mph3.7 kmh 30.19 in1022.4 mb - 0.00 in0.0 mm 0.00 in0.0 mm
06:00 AM 27.9°F-2.3°C 24.3°F-4.3°C 86% Calm Calm 1.2 mph1.9 kmh 30.20 in1022.7 mb - 0.00 in0.0 mm 0.00 in0.0 mm
06:10 AM 27.9°F-2.3°C 24.5°F-4.2°C 87% Calm Calm 1.2 mph1.9 kmh 30.20 in1022.7 mb - 0.00 in0.0 mm 0.00 in0.0 mm
06:20 AM 27.9°F-2.3°C 24.5°F-4.2°C 87% Calm Calm 2.3 mph3.7 kmh 30.21 in1023.0 mb - 0.00 in0.0 mm 0.00 in0.0 mm
06:30 AM 28.0°F-2.2°C 24.6°F-4.1°C 87% 1.2 mph NW1.9 kmh NW 2.3 mph3.7 kmh 30.22 in1023.4 mb - 0.00 in0.0 mm 0.00 in0.0 mm
06:40 AM 28.0°F-2.2°C 24.4°F-4.2°C 86% 1.2 mph N1.9 kmh N 1.2 mph1.9 kmh 30.22 in1023.4 mb - 0.00 in0.0 mm 0.00 in0.0 mm
06:50 AM 28.0°F-2.2°C 24.4°F-4.2°C 86% 1.2 mph NE1.9 kmh NE 3.5 mph5.6 kmh 30.23 in1023.7 mb - 0.00 in0.0 mm 0.00 in0.0 mm
07:00 AM 28.1°F-2.2°C 24.7°F-4.1°C 87% Calm Calm 1.2 mph1.9 kmh 30.23 in1023.7 mb - 0.00 in0.0 mm 0.00 in0.0 mm
07:10 AM 28.1°F-2.2°C 24.5°F-4.2°C 86% 1.2 mph N1.9 kmh N 2.3 mph3.7 kmh 30.23 in1023.7 mb - 0.00 in0.0 mm 0.00 in0.0 mm
07:20 AM 28.0°F-2.2°C 23.5°F-4.7°C 83% 1.2 mph N1.9 kmh N 2.3 mph3.7 kmh 30.23 in1023.7 mb - 0.00 in0.0 mm 0.00 in0.0 mm
07:30 AM 28.0°F-2.2°C 23.2°F-4.9°C 82% 2.3 mph N3.7 kmh N 4.6 mph7.4 kmh 30.23 in1023.7 mb - 0.00 in0.0 mm 0.00 in0.0 mm
07:40 AM 27.9°F-2.3°C 22.5°F-5.3°C 80% 3.5 mph NNW5.6 kmh NNW 5.8 mph9.3 kmh 30.24 in1024.0 mb - 0.00 in0.0 mm 0.00 in0.0 mm
07:50 AM 27.8°F-2.3°C 22.4°F-5.3°C 80% 3.5 mph N5.6 kmh N 4.6 mph7.4 kmh 30.24 in1024.0 mb - 0.00 in0.0 mm 0.00 in0.0 mm
08:00 AM 27.7°F-2.4°C 22.0°F-5.6°C 79% 2.3 mph N3.7 kmh N 6.9 mph11.1 kmh 30.25 in1024.4 mb - 0.00 in0.0 mm 0.00 in0.0 mm
08:10 AM 27.6°F-2.4°C 21.9°F-5.6°C 79% 2.3 mph N3.7 kmh N 4.6 mph7.4 kmh 30.25 in1024.4 mb - 0.00 in0.0 mm 0.00 in0.0 mm
08:20 AM 27.4°F-2.6°C 22.0°F-5.6°C 80% 2.3 mph NNW3.7 kmh NNW 3.5 mph5.6 kmh 30.26 in1024.7 mb - 0.00 in0.0 mm 0.00 in0.0 mm
08:30 AM 27.2°F-2.7°C 21.6°F-5.8°C 79% 3.5 mph N5.6 kmh N 6.9 mph11.1 kmh 30.26 in1024.7 mb - 0.00 in0.0 mm 0.00 in0.0 mm
08:40 AM 27.2°F-2.7°C 21.2°F-6.0°C 78% 2.3 mph N3.7 kmh N 3.5 mph5.6 kmh 30.26 in1024.7 mb - 0.00 in0.0 mm 0.00 in0.0 mm
08:50 AM 27.1°F-2.7°C 21.2°F-6.0°C 78% 3.5 mph N5.6 kmh N 3.5 mph5.6 kmh 30.27 in1025.1 mb - 0.00 in0.0 mm 0.00 in0.0 mm
09:00 AM 26.9°F-2.8°C 21.3°F-5.9°C 79% 3.5 mph NNW5.6 kmh NNW 5.8 mph9.3 kmh 30.27 in1025.1 mb - 0.00 in0.0 mm 0.00 in0.0 mm
09:10 AM 26.7°F-2.9°C 20.5°F-6.4°C 77% 3.5 mph N5.6 kmh N 3.5 mph5.6 kmh 30.28 in1025.4 mb - 0.00 in0.0 mm 0.00 in0.0 mm
09:20 AM 26.5°F-3.1°C 20.6°F-6.3°C 78% 3.5 mph N5.6 kmh N 4.6 mph7.4 kmh 30.28 in1025.4 mb - 0.00 in0.0 mm 0.00 in0.0 mm
09:30 AM 26.3°F-3.2°C 20.7°F-6.3°C 79% 3.5 mph N5.6 kmh N 5.8 mph9.3 kmh 30.29 in1025.7 mb - 0.00 in0.0 mm 0.00 in0.0 mm
09:40 AM 26.2°F-3.2°C 20.2°F-6.6°C 78% 2.3 mph N3.7 kmh N 3.5 mph5.6 kmh 30.29 in1025.7 mb - 0.00 in0.0 mm 0.00 in0.0 mm
09:50 AM 26.0°F-3.3°C 20.4°F-6.4°C 79% 2.3 mph N3.7 kmh N 3.5 mph5.6 kmh 30.30 in1026.1 mb - 0.00 in0.0 mm 0.00 in0.0 mm
10:00 AM 26.0°F-3.3°C 20.4°F-6.4°C 79% 3.5 mph N5.6 kmh N 5.8 mph9.3 kmh 30.31 in1026.4 mb - 0.00 in0.0 mm 0.00 in0.0 mm
10:10 AM 25.9°F-3.4°C 20.3°F-6.5°C 79% 1.2 mph N1.9 kmh N 2.3 mph3.7 kmh 30.32 in1026.8 mb - 0.00 in0.0 mm 0.00 in0.0 mm
10:20 AM 25.8°F-3.4°C 20.2°F-6.6°C 79% 1.2 mph NNE1.9 kmh NNE 2.3 mph3.7 kmh 30.32 in1026.8 mb - 0.00 in0.0 mm 0.00 in0.0 mm
10:30 AM 25.7°F-3.5°C 19.8°F-6.8°C 78% 2.3 mph N3.7 kmh N 3.5 mph5.6 kmh 30.33 in1027.1 mb - 0.00 in0.0 mm 0.00 in0.0 mm
10:40 AM 25.6°F-3.6°C 20.0°F-6.7°C 79% 1.2 mph NE1.9 kmh NE 2.3 mph3.7 kmh 30.33 in1027.1 mb - 0.00 in0.0 mm 0.00 in0.0 mm
10:50 AM 25.7°F-3.5°C 19.8°F-6.8°C 78% 4.6 mph N7.4 kmh N 8.1 mph13.0 kmh 30.33 in1027.1 mb - 0.00 in0.0 mm 0.00 in0.0 mm
11:00 AM 25.9°F-3.4°C 19.7°F-6.8°C 77% 3.5 mph N5.6 kmh N 4.6 mph7.4 kmh 30.33 in1027.1 mb - 0.00 in0.0 mm 0.00 in0.0 mm
11:10 AM 25.9°F-3.4°C 19.7°F-6.8°C 77% 3.5 mph N5.6 kmh N 4.6 mph7.4 kmh 30.34 in1027.4 mb - 0.00 in0.0 mm 0.00 in0.0 mm
11:20 AM 25.9°F-3.4°C 19.7°F-6.8°C 77% 4.6 mph N7.4 kmh N 6.9 mph11.1 kmh 30.34 in1027.4 mb - 0.00 in0.0 mm 0.00 in0.0 mm
11:30 AM 26.0°F-3.3°C 20.1°F-6.6°C 78% 3.5 mph NNW5.6 kmh NNW 5.8 mph9.3 kmh 30.35 in1027.8 mb - 0.00 in0.0 mm 0.00 in0.0 mm
11:40 AM 26.0°F-3.3°C 20.7°F-6.3°C 80% 2.3 mph N3.7 kmh N 9.2 mph14.8 kmh 30.35 in1027.8 mb - 0.00 in0.0 mm 0.00 in0.0 mm
11:50 AM 26.0°F-3.3°C 21.0°F-6.1°C 81% 2.3 mph 3.7 kmh 8.1 mph13.0 kmh 30.36 in1028.1 mb - 0.00 in0.0 mm 0.00 in0.0 mm
12:00 PM 25.8°F-3.4°C 20.5°F-6.4°C 80% 2.3 mph N3.7 kmh N 3.5 mph5.6 kmh 30.36 in1028.1 mb - 0.00 in0.0 mm 0.00 in0.0 mm
12:10 PM 25.7°F-3.5°C 20.4°F-6.4°C 80% 5.8 mph NNW9.3 kmh NNW 6.9 mph11.1 kmh 30.37 in1028.4 mb - 0.00 in0.0 mm 0.00 in0.0 mm
12:20 PM 25.6°F-3.6°C 19.7°F-6.8°C 78% 3.5 mph N5.6 kmh N 4.6 mph7.4 kmh 30.37 in1028.4 mb - 0.00 in0.0 mm 0.00 in0.0 mm
12:30 PM 25.5°F-3.6°C 19.6°F-6.9°C 78% 2.3 mph N3.7 kmh N 4.6 mph7.4 kmh 30.38 in1028.8 mb - 0.00 in0.0 mm 0.00 in0.0 mm
12:40 PM 25.5°F-3.6°C 19.6°F-6.9°C 78% 2.3 mph N3.7 kmh N 3.5 mph5.6 kmh 30.38 in1028.8 mb - 0.00 in0.0 mm 0.00 in0.0 mm
12:50 PM 25.4°F-3.7°C 19.5°F-6.9°C 78% 3.5 mph N5.6 kmh N 3.5 mph5.6 kmh 30.38 in1028.8 mb - 0.00 in0.0 mm 0.00 in0.0 mm
01:00 PM 25.4°F-3.7°C 19.2°F-7.1°C 77% 2.3 mph NNW3.7 kmh NNW 2.3 mph3.7 kmh 30.38 in1028.8 mb - 0.00 in0.0 mm 0.00 in0.0 mm
01:10 PM 25.7°F-3.5°C 19.5°F-6.9°C 77% 2.3 mph NNW3.7 kmh NNW 3.5 mph5.6 kmh 30.37 in1028.4 mb - 0.00 in0.0 mm 0.00 in0.0 mm
01:20 PM 25.8°F-3.4°C 19.3°F-7.1°C 76% 1.2 mph N1.9 kmh N 3.5 mph5.6 kmh 30.37 in1028.4 mb - 0.00 in0.0 mm 0.00 in0.0 mm
01:30 PM 25.8°F-3.4°C 19.3°F-7.1°C 76% 3.5 mph 5.6 kmh 5.8 mph9.3 kmh 30.37 in1028.4 mb - 0.00 in0.0 mm 0.00 in0.0 mm
01:40 PM 26.0°F-3.3°C 19.5°F-6.9°C 76% 1.2 mph NNW1.9 kmh NNW 3.5 mph5.6 kmh 30.37 in1028.4 mb - 0.00 in0.0 mm 0.00 in0.0 mm
01:50 PM 26.1°F-3.3°C 19.6°F-6.9°C 76% 3.5 mph 5.6 kmh 4.6 mph7.4 kmh 30.37 in1028.4 mb - 0.00 in0.0 mm 0.00 in0.0 mm
02:00 PM 26.0°F-3.3°C 19.1°F-7.2°C 75% 2.3 mph N3.7 kmh N 4.6 mph7.4 kmh 30.37 in1028.4 mb - 0.00 in0.0 mm 0.00 in0.0 mm
02:10 PM 25.7°F-3.5°C 18.9°F-7.3°C 75% 3.5 mph NNW5.6 kmh NNW 4.6 mph7.4 kmh 30.37 in1028.4 mb - 0.00 in0.0 mm 0.00 in0.0 mm
02:20 PM 25.7°F-3.5°C 18.9°F-7.3°C 75% 2.3 mph NNW3.7 kmh NNW 3.5 mph5.6 kmh 30.37 in1028.4 mb - 0.00 in0.0 mm 0.00 in0.0 mm
02:30 PM 25.7°F-3.5°C 18.9°F-7.3°C 75% 2.3 mph NNW3.7 kmh NNW 2.3 mph3.7 kmh 30.37 in1028.4 mb - 0.00 in0.0 mm 0.00 in0.0 mm
02:40 PM 25.8°F-3.4°C 18.7°F-7.4°C 74% 2.3 mph NNW3.7 kmh NNW 4.6 mph7.4 kmh 30.37 in1028.4 mb - 0.00 in0.0 mm 0.00 in0.0 mm
02:50 PM 25.6°F-3.6°C 18.5°F-7.5°C 74% 2.3 mph N3.7 kmh N 3.5 mph5.6 kmh 30.37 in1028.4 mb - 0.00 in0.0 mm 0.00 in0.0 mm
03:00 PM 25.7°F-3.5°C 18.6°F-7.4°C 74% 1.2 mph N1.9 kmh N 2.3 mph3.7 kmh 30.37 in1028.4 mb - 0.00 in0.0 mm 0.00 in0.0 mm
03:10 PM 25.7°F-3.5°C 18.2°F-7.7°C 73% 2.3 mph NW3.7 kmh NW 3.5 mph5.6 kmh 30.37 in1028.4 mb - 0.00 in0.0 mm 0.00 in0.0 mm
03:20 PM 25.9°F-3.4°C 18.1°F-7.7°C 72% 3.5 mph NNW5.6 kmh NNW 4.6 mph7.4 kmh 30.37 in1028.4 mb - 0.00 in0.0 mm 0.00 in0.0 mm
03:30 PM 25.8°F-3.4°C 18.4°F-7.6°C 73% 2.3 mph NNW3.7 kmh NNW 3.5 mph5.6 kmh 30.37 in1028.4 mb - 0.00 in0.0 mm 0.00 in0.0 mm
03:40 PM 25.9°F-3.4°C 18.7°F-7.4°C 74% 1.2 mph N1.9 kmh N 2.3 mph3.7 kmh 30.37 in1028.4 mb - 0.00 in0.0 mm 0.00 in0.0 mm
03:50 PM 25.8°F-3.4°C 18.3°F-7.6°C 73% 3.5 mph NW5.6 kmh NW 5.8 mph9.3 kmh 30.38 in1028.8 mb - 0.00 in0.0 mm 0.00 in0.0 mm
04:00 PM 25.6°F-3.6°C 18.1°F-7.7°C 73% 2.3 mph N3.7 kmh N 2.3 mph3.7 kmh 30.38 in1028.8 mb - 0.00 in0.0 mm 0.00 in0.0 mm
04:10 PM 25.8°F-3.4°C 18.7°F-7.4°C 74% 1.2 mph NW1.9 kmh NW 2.3 mph3.7 kmh 30.38 in1028.8 mb - 0.00 in0.0 mm 0.00 in0.0 mm
04:20 PM 25.9°F-3.4°C 18.7°F-7.4°C 74% 2.3 mph N3.7 kmh N 3.5 mph5.6 kmh 30.38 in1028.8 mb - 0.00 in0.0 mm 0.00 in0.0 mm
04:30 PM 25.9°F-3.4°C 18.4°F-7.6°C 73% 2.3 mph NNW3.7 kmh NNW 3.5 mph5.6 kmh 30.38 in1028.8 mb - 0.00 in0.0 mm 0.00 in0.0 mm
04:40 PM 25.9°F-3.4°C 18.5°F-7.5°C 73% 1.2 mph NNW1.9 kmh NNW 3.5 mph5.6 kmh 30.38 in1028.8 mb - 0.00 in0.0 mm 0.00 in0.0 mm
04:50 PM 25.9°F-3.4°C 18.7°F-7.4°C 74% 2.3 mph N3.7 kmh N 4.6 mph7.4 kmh 30.38 in1028.8 mb - 0.00 in0.0 mm 0.00 in0.0 mm
05:00 PM 25.8°F-3.4°C 19.0°F-7.2°C 75% 1.2 mph N1.9 kmh N 4.6 mph7.4 kmh 30.38 in1028.8 mb - 0.00 in0.0 mm 0.00 in0.0 mm
05:10 PM 25.8°F-3.4°C 18.4°F-7.6°C 73% 3.5 mph NNW5.6 kmh NNW 4.6 mph7.4 kmh 30.39 in1029.1 mb - 0.00 in0.0 mm 0.00 in0.0 mm
05:20 PM 25.8°F-3.4°C 18.3°F-7.6°C 73% 1.2 mph NNW1.9 kmh NNW 2.3 mph3.7 kmh 30.39 in1029.1 mb - 0.00 in0.0 mm 0.00 in0.0 mm
05:30 PM 25.8°F-3.4°C 18.0°F-7.8°C 72% 2.3 mph NNW3.7 kmh NNW 3.5 mph5.6 kmh 30.39 in1029.1 mb - 0.00 in0.0 mm 0.00 in0.0 mm
05:40 PM 25.8°F-3.4°C 19.6°F-6.9°C 77% 2.3 mph NNE3.7 kmh NNE 3.5 mph5.6 kmh 30.39 in1029.1 mb - 0.00 in0.0 mm 0.00 in0.0 mm
05:50 PM 25.6°F-3.6°C 19.7°F-6.8°C 78% 3.5 mph N5.6 kmh N 6.9 mph11.1 kmh 30.39 in1029.1 mb - 0.00 in0.0 mm 0.00 in0.0 mm
06:00 PM 25.3°F-3.7°C 18.8°F-7.3°C 76% 2.3 mph NNW3.7 kmh NNW 5.8 mph9.3 kmh 30.39 in1029.1 mb - 0.00 in0.0 mm 0.00 in0.0 mm
06:10 PM 25.0°F-3.9°C 19.1°F-7.2°C 78% 2.3 mph NW3.7 kmh NW 3.5 mph5.6 kmh 30.40 in1029.5 mb - 0.00 in0.0 mm 0.00 in0.0 mm
06:20 PM 24.6°F-4.1°C 18.5°F-7.5°C 77% 2.3 mph NNW3.7 kmh NNW 3.5 mph5.6 kmh 30.40 in1029.5 mb - 0.00 in0.0 mm 0.00 in0.0 mm
06:30 PM 24.3°F-4.3°C 18.4°F-7.6°C 78% 2.3 mph 3.7 kmh 3.5 mph5.6 kmh 30.40 in1029.5 mb - 0.00 in0.0 mm 0.00 in0.0 mm
06:40 PM 24.0°F-4.4°C 18.4°F-7.6°C 79% 1.2 mph N1.9 kmh N 2.3 mph3.7 kmh 30.40 in1029.5 mb - 0.00 in0.0 mm 0.00 in0.0 mm
06:50 PM 23.7°F-4.6°C 18.1°F-7.7°C 79% 1.2 mph N1.9 kmh N 2.3 mph3.7 kmh 30.40 in1029.5 mb - 0.00 in0.0 mm 0.00 in0.0 mm
07:00 PM 23.5°F-4.7°C 18.3°F-7.6°C 80% 2.3 mph N3.7 kmh N 3.5 mph5.6 kmh 30.41 in1029.8 mb - 0.00 in0.0 mm 0.00 in0.0 mm
07:10 PM 23.4°F-4.8°C 18.4°F-7.6°C 81% 2.3 mph N3.7 kmh N 3.5 mph5.6 kmh 30.41 in1029.8 mb - 0.00 in0.0 mm 0.00 in0.0 mm
07:20 PM 23.1°F-4.9°C 18.1°F-7.7°C 81% 2.3 mph N3.7 kmh N 4.6 mph7.4 kmh 30.42 in1030.1 mb - 0.00 in0.0 mm 0.00 in0.0 mm
07:30 PM 22.8°F-5.1°C 17.8°F-7.9°C 81% 2.3 mph NNW3.7 kmh NNW 2.3 mph3.7 kmh 30.42 in1030.1 mb - 0.00 in0.0 mm 0.00 in0.0 mm
07:40 PM 22.6°F-5.2°C 17.9°F-7.8°C 82% 2.3 mph NNW3.7 kmh NNW 2.3 mph3.7 kmh 30.42 in1030.1 mb - 0.00 in0.0 mm 0.00 in0.0 mm
07:50 PM 22.2°F-5.4°C 17.5°F-8.1°C 82% 2.3 mph NNW3.7 kmh NNW 5.8 mph9.3 kmh 30.43 in1030.5 mb - 0.00 in0.0 mm 0.00 in0.0 mm
08:00 PM 21.8°F-5.7°C 17.2°F-8.2°C 82% 2.3 mph N3.7 kmh N 3.5 mph5.6 kmh 30.43 in1030.5 mb - 0.00 in0.0 mm 0.00 in0.0 mm
08:10 PM 21.4°F-5.9°C 16.8°F-8.4°C 82% 2.3 mph NNW3.7 kmh NNW 4.6 mph7.4 kmh 30.44 in1030.8 mb - 0.00 in0.0 mm 0.00 in0.0 mm
08:20 PM 21.1°F-6.1°C 16.7°F-8.5°C 83% 3.5 mph N5.6 kmh N 8.1 mph13.0 kmh 30.44 in1030.8 mb - 0.00 in0.0 mm 0.00 in0.0 mm
08:30 PM 20.8°F-6.2°C 16.7°F-8.5°C 84% 2.3 mph N3.7 kmh N 3.5 mph5.6 kmh 30.45 in1031.2 mb - 0.00 in0.0 mm 0.00 in0.0 mm
08:40 PM 20.5°F-6.4°C 16.2°F-8.8°C 83% 1.2 mph N1.9 kmh N 2.3 mph3.7 kmh 30.45 in1031.2 mb - 0.00 in0.0 mm 0.00 in0.0 mm
08:50 PM 20.2°F-6.6°C 16.2°F-8.8°C 84% 4.6 mph N7.4 kmh N 9.2 mph14.8 kmh 30.45 in1031.2 mb - 0.00 in0.0 mm 0.00 in0.0 mm
09:00 PM 20.0°F-6.7°C 16.0°F-8.9°C 84% 2.3 mph N3.7 kmh N 4.6 mph7.4 kmh 30.46 in1031.5 mb - 0.00 in0.0 mm 0.00 in0.0 mm
09:10 PM 19.9°F-6.7°C 16.1°F-8.8°C 85% 2.3 mph NNW3.7 kmh NNW 3.5 mph5.6 kmh 30.46 in1031.5 mb - 0.00 in0.0 mm 0.00 in0.0 mm
09:20 PM 19.8°F-6.8°C 16.0°F-8.9°C 85% 2.3 mph NNW3.7 kmh NNW 4.6 mph7.4 kmh 30.46 in1031.5 mb - 0.00 in0.0 mm 0.00 in0.0 mm
09:30 PM 19.7°F-6.8°C 15.9°F-8.9°C 85% 4.6 mph NNW7.4 kmh NNW 5.8 mph9.3 kmh 30.46 in1031.5 mb - 0.00 in0.0 mm 0.00 in0.0 mm
09:40 PM 19.5°F-6.9°C 15.7°F-9.1°C 85% 3.5 mph N5.6 kmh N 4.6 mph7.4 kmh 30.46 in1031.5 mb - 0.00 in0.0 mm 0.00 in0.0 mm
09:50 PM 19.4°F-7.0°C 15.6°F-9.1°C 85% 2.3 mph N3.7 kmh N 4.6 mph7.4 kmh 30.46 in1031.5 mb - 0.00 in0.0 mm 0.00 in0.0 mm
10:00 PM 19.3°F-7.1°C 15.8°F-9.0°C 86% 2.3 mph N3.7 kmh N 3.5 mph5.6 kmh 30.46 in1031.5 mb - 0.00 in0.0 mm 0.00 in0.0 mm
10:10 PM 19.3°F-7.1°C 15.8°F-9.0°C 86% 4.6 mph N7.4 kmh N 6.9 mph11.1 kmh 30.46 in1031.5 mb - 0.00 in0.0 mm 0.00 in0.0 mm
10:20 PM 19.3°F-7.1°C 15.5°F-9.2°C 85% 4.6 mph N7.4 kmh N 5.8 mph9.3 kmh 30.47 in1031.8 mb - 0.00 in0.0 mm 0.00 in0.0 mm
10:30 PM 19.4°F-7.0°C 15.9°F-8.9°C 86% 4.6 mph N7.4 kmh N 9.2 mph14.8 kmh 30.47 in1031.8 mb - 0.00 in0.0 mm 0.00 in0.0 mm
10:40 PM 19.3°F-7.1°C 15.5°F-9.2°C 85% 3.5 mph N5.6 kmh N 4.6 mph7.4 kmh 30.47 in1031.8 mb - 0.00 in0.0 mm 0.00 in0.0 mm
10:50 PM 19.3°F-7.1°C 15.5°F-9.2°C 85% 4.6 mph N7.4 kmh N 8.1 mph13.0 kmh 30.47 in1031.8 mb - 0.00 in0.0 mm 0.00 in0.0 mm
11:00 PM 19.2°F-7.1°C 15.7°F-9.1°C 86% 1.2 mph N1.9 kmh N 4.6 mph7.4 kmh 30.47 in1031.8 mb - 0.00 in0.0 mm 0.00 in0.0 mm
11:10 PM 19.2°F-7.1°C 15.4°F-9.2°C 85% 2.3 mph N3.7 kmh N 4.6 mph7.4 kmh 30.47 in1031.8 mb - 0.00 in0.0 mm 0.00 in0.0 mm
11:20 PM 19.2°F-7.1°C 15.7°F-9.1°C 86% 2.3 mph N3.7 kmh N 4.6 mph7.4 kmh 30.47 in1031.8 mb - 0.00 in0.0 mm 0.00 in0.0 mm
11:30 PM 19.2°F-7.1°C 15.7°F-9.1°C 86% 3.5 mph NNW5.6 kmh NNW 4.6 mph7.4 kmh 30.47 in1031.8 mb - 0.00 in0.0 mm 0.00 in0.0 mm
11:40 PM 19.4°F-7.0°C 15.6°F-9.1°C 85% 1.2 mph N1.9 kmh N 3.5 mph5.6 kmh 30.47 in1031.8 mb - 0.00 in0.0 mm 0.00 in0.0 mm
11:50 PM 19.7°F-6.8°C 16.2°F-8.8°C 86% 2.3 mph NNW3.7 kmh NNW 2.3 mph3.7 kmh 30.47 in1031.8 mb - 0.00 in0.0 mm 0.00 in0.0 mm